Maugansville, MD

10:00 EST le 02 Mars 2015 (GMT -0500)
Hagerstown Regional-Henson | Change Station
CLOSE
Current Station
Aéroport
Location: Hagerstown,
Altitude: 705 ft
Stations météo à proximité

Alt. 705 ft 39.71 °N, 77.73 °W | Updated 7 minutes ago

Partiellement nuageux
Partiellement nuageux
35 ° F
Paraît 23 ° F
N
24
Vent Variable Vent de ONO
Gusts 34 mph

Aujourd'hui
Haut(e) -- | Bas -- ° F
--% Risque de précip.
Hier
Haut(e) -- | Bas -- ° F
Precip. -- pouce
6:42 AM 6:03 PM
Lune gibbeuse croissante, 91% visible
Pression 30.33 pouce
Visibilité 10.0 Miles terrestres
Nuages Ciel dégagé
Refroidissement éolien 23 ° F
Point de rosée 18 ° F
Humidité 50%
Précipitations 0.00 pouce
Profondeur de la couche neigeuse Non disponible.
UV 3 sur 12
Pollen 4.40 sur 12
Qualité de l'air Non disponible.
Flu Activity Non disponible.
METAR KHGR 021453Z 30021G30KT 10SM CLR 02/M08 A3027 RMK AO2 PK WND 31033/1407 SLP269 T00171078 51045

More Conditions Fewer Conditions

Pression 30.33 pouce
Visibilité 10.0 Miles terrestres
Nuages Ciel dégagé
Refroidissement éolien 23 ° F
Point de rosée 18 ° F
Humidité 50%
Précipitations 0.00 pouce
Profondeur de la couche neigeuse Non disponible.
UV 3 sur 12
Pollen 4.40 sur 12
Qualité de l'air Non disponible.
Flu Activity Non disponible.
METAR KHGR 021453Z 30021G30KT 10SM CLR 02/M08 A3027 RMK AO2 PK WND 31033/1407 SLP269 T00171078 51045

More Conditions Fewer Conditions

10-Day Weather Forecast

Almanac

Astronomie

Mar. 02, 2015 Lever Coucher
Temps réel
Crépuscule civil
Crépuscule nautique
Crépuscule astronomique
Lune
Durée de lumière visible
Longueur du jour
Tomorrow will be .
, % of the Moon is Illuminated

Extrêmes aujourd'hui

State Highs State Lows

Community

WunderPhotos

Upload Photos

1,801,798 Photos téléchargées !

WunderBlogs® & News

Nearby

Qualité de l'air

  Qualité de l'air Indice de la qualité de l'air Polluant
Not available.

Épaisseur de neige

Station Depth Altitude

Activité sismique

Ville Distance Mag. Time & Date
Minimum magnitude displayed is 2.5.

Températures des eaux côtières

Lieu Température

Stations météo à proximité